Rolling Prairie, Indiana
Current Conditions -  °F | °C
As of 7:35 PM on Wednesday 26 Nov 2014 (Local Time) from KPPO Reporting Station
Scattered Clouds Scattered Clouds  
Wind Chill: 28°   Ceiling: Unl
Heat Index: 28°   Visibility: 10mi
Dew Point: 21°   Wind: 0mph
Humidity: 75%   Direction: NA
Pressure: 30.13"   Gusts: NA
Location:  41.67°N, 86.62°W
Report Text: KPPO 270135Z AUTO 00000KT 10SM SCT024 M02/M06 A3013 RMK AO2 T10251063
Loading
Personal Weather Stations






























Interactive Weather Map New forecast layout! Learn more

10-Day Weather Forecast

Advertisements
Track Severe Weather on mobile